KTIK/TIK METAR and TAF weather

Enter ICAO airport designator
Station Type Date Time Source
KTIK METAR 2021/05/14 12:56 UTC NOAA

KTIK 141256Z AUTO 18010KT 10SM CLR 13/10 A3023 RMK AO2 SLP240 T01290097 $


Station Type Date Time Source
KTIK Decoded METAR 2021/05/14 12:56 UTC NOAA

Tinker Air Force Base, OK, United States (KTIK) 35-25N 097-23W 397M
May 14, 2021 - 08:56 AM EDT / 2021.05.14 1256 UTC
Wind: from the S (180 degrees) at 12 MPH (10 KT):0
Visibility: 10 mile(s):0
Sky conditions: clear
Temperature: 55.2 F (12.9 C)
Dew Point: 49.5 F (9.7 C)
Relative Humidity: 80%
Pressure (altimeter): 30.23 in. Hg (1023 hPa)
ob: KTIK 141256Z AUTO 18010KT 10SM CLR 13/10 A3023 RMK AO2 SLP240 T01290097
cycle: 13

Station Type Date Time Source
KTIK TAF 2021/05/14 09:03 UTC NOAA

TAF KTIK 140900Z 1409/1515 17008KT 9999 SKC QNH3020INS
BECMG 1415/1416 18012G20KT 9999 SCT140 QNH3003INS
BECMG 1502/1503 15012KT 9999 SCT025 510062 QNH3005INS
BECMG 1507/1508 15012KT 9999 BKN020 510062 QNH2998INS
BECMG 1514/1515 18015G20KT 9999 BKN013 QNH3000INS TX24/1421Z TN11/1412Z

Example: see airport list